Terminal Aerodrome Forecast
Issued by NWS

Home | Current Version | Previous Version | Text Only | Print | Product List | Glossary On
Versions: 1 2 3 4 5 6 7 8 9 10 11 12 13 14 15 16 17
000
FTAK31 PANC 240530
TAFAHO
TAF
PAHO 240530Z 2406/2506 VRB03KT P6SM SCT045 SCT200
      TEMPO 2406/2408 26010KT
     FM242200 25014KT P6SM FEW045 SCT200
     FM250500 26007KT P6SM SCT200=

USA.gov is the U.S. government's official web portal to all federal, state and local government web resources and services.